createdAt,value
2017-12-22T00:01:22.784Z,-62
2017-12-22T00:03:50.716Z,-61
2017-12-22T00:06:19.395Z,-62
2017-12-22T00:08:48.080Z,-62
2017-12-22T00:11:16.024Z,-62
2017-12-22T00:13:44.000Z,-62
2017-12-22T00:16:11.995Z,-63
2017-12-22T00:18:41.951Z,-63
2017-12-22T00:21:09.948Z,-64
2017-12-22T00:23:37.960Z,-63
2017-12-22T00:26:05.884Z,-63
2017-12-22T00:28:33.893Z,-63
2017-12-22T00:31:03.269Z,-64
2017-12-22T00:33:31.232Z,-64
2017-12-22T00:35:59.964Z,-64
2017-12-22T00:38:28.628Z,-63
2017-12-22T00:40:57.635Z,-63
2017-12-22T00:43:26.392Z,-63
2017-12-22T00:46:02.523Z,-63
2017-12-22T00:48:30.564Z,-63
2017-12-22T00:50:58.545Z,-64
2017-12-22T00:53:26.492Z,-64
2017-12-22T00:55:56.164Z,-63
2017-12-22T00:58:24.096Z,-64
2017-12-22T01:00:52.073Z,-63
2017-12-22T01:03:20.798Z,-63
2017-12-22T01:05:48.780Z,-63
2017-12-22T01:08:17.732Z,-63
2017-12-22T01:10:46.843Z,-64
2017-12-22T01:13:14.903Z,-63
2017-12-22T01:15:48.657Z,-63
2017-12-22T01:19:22.509Z,-63
2017-12-22T01:21:50.543Z,-63
2017-12-22T01:24:18.506Z,-63
2017-12-22T01:26:46.828Z,-63
2017-12-22T01:29:15.596Z,-63
2017-12-22T01:31:44.624Z,-62
2017-12-22T01:34:12.600Z,-62
2017-12-22T01:36:40.579Z,-61
2017-12-22T01:39:09.472Z,-61
2017-12-22T01:41:37.415Z,-61
2017-12-22T01:44:05.374Z,-61
2017-12-22T01:46:33.388Z,-61
2017-12-22T01:49:01.356Z,-61
2017-12-22T01:51:29.284Z,-61
2017-12-22T01:53:57.227Z,-61
2017-12-22T01:56:26.952Z,-61
2017-12-22T01:58:54.893Z,-61
2017-12-22T02:01:23.652Z,-61
2017-12-22T02:03:52.420Z,-62
2017-12-22T02:06:20.362Z,-61
2017-12-22T02:08:49.160Z,-61
2017-12-22T02:11:17.640Z,-61
2017-12-22T02:13:46.073Z,-61
2017-12-22T02:16:14.881Z,-61
2017-12-22T02:18:44.923Z,-61
2017-12-22T02:21:13.585Z,-61
2017-12-22T02:23:42.263Z,-61
2017-12-22T02:26:10.200Z,-61
2017-12-22T02:28:39.856Z,-61
2017-12-22T02:31:08.561Z,-61
2017-12-22T02:33:39.505Z,-61
2017-12-22T02:36:08.373Z,-61
2017-12-22T02:38:36.318Z,-61
2017-12-22T02:41:04.768Z,-61
2017-12-22T02:43:32.983Z,-61
2017-12-22T02:46:00.912Z,-61
2017-12-22T02:48:28.880Z,-61
2017-12-22T02:50:56.816Z,-61
2017-12-22T02:53:24.787Z,-61
2017-12-22T02:55:52.762Z,-61
2017-12-22T02:58:20.724Z,-61
2017-12-22T03:00:48.648Z,-61
2017-12-22T03:03:16.580Z,-61
2017-12-22T03:05:44.536Z,-61
2017-12-22T03:08:12.495Z,-61
2017-12-22T03:10:40.460Z,-61
2017-12-22T03:13:09.584Z,-61
2017-12-22T03:15:38.156Z,-61
2017-12-22T03:18:07.083Z,-61
2017-12-22T03:20:35.852Z,-61
2017-12-22T03:23:03.764Z,-61
2017-12-22T03:25:31.672Z,-61
2017-12-22T03:27:59.766Z,-61
2017-12-22T03:30:27.722Z,-61
2017-12-22T03:32:55.688Z,-61
2017-12-22T03:35:23.654Z,-62
2017-12-22T03:37:51.621Z,-62
2017-12-22T03:40:19.534Z,-62
2017-12-22T03:42:48.243Z,-62
2017-12-22T03:45:16.192Z,-62
2017-12-22T03:47:45.105Z,-62
2017-12-22T03:50:14.624Z,-62
2017-12-22T03:52:43.300Z,-62
2017-12-22T03:55:12.771Z,-61
2017-12-22T03:57:41.718Z,-62
2017-12-22T04:00:09.672Z,-61
2017-12-22T04:02:37.609Z,-62
2017-12-22T04:05:05.547Z,-62
2017-12-22T04:07:33.491Z,-62
2017-12-22T04:10:01.563Z,-63
2017-12-22T04:12:29.509Z,-62
2017-12-22T04:14:58.196Z,-62
2017-12-22T04:17:26.861Z,-62
2017-12-22T04:19:54.796Z,-62
2017-12-22T04:22:22.744Z,-62
2017-12-22T04:24:50.677Z,-62
2017-12-22T04:27:18.596Z,-62
2017-12-22T04:29:46.513Z,-62
2017-12-22T04:32:14.507Z,-62
2017-12-22T04:34:44.659Z,-62
2017-12-22T04:37:13.341Z,-62
2017-12-22T04:39:41.972Z,-62
2017-12-22T04:42:12.799Z,-61
2017-12-22T04:44:40.714Z,-62
2017-12-22T04:47:08.667Z,-62
2017-12-22T04:49:38.360Z,-62
2017-12-22T04:52:07.196Z,-62
2017-12-22T04:54:35.143Z,-62
2017-12-22T04:57:03.095Z,-62
2017-12-22T04:59:31.063Z,-62
2017-12-22T05:01:59.064Z,-62
2017-12-22T05:04:27.956Z,-62
2017-12-22T05:06:55.919Z,-62
2017-12-22T05:09:23.868Z,-62
2017-12-22T05:11:51.832Z,-63
2017-12-22T05:14:20.452Z,-62
2017-12-22T05:16:50.615Z,-62
2017-12-22T05:19:19.556Z,-62
2017-12-22T05:21:47.499Z,-62
2017-12-22T05:24:16.364Z,-62
2017-12-22T05:26:44.372Z,-62
2017-12-22T05:29:13.656Z,-62
2017-12-22T05:31:41.607Z,-62
2017-12-22T05:34:09.756Z,-62
2017-12-22T05:36:37.696Z,-62
2017-12-22T05:39:05.644Z,-62
2017-12-22T05:41:33.612Z,-62
2017-12-22T05:44:02.304Z,-61
2017-12-22T05:46:30.987Z,-62
2017-12-22T05:48:59.674Z,-62
2017-12-22T05:51:28.350Z,-62
2017-12-22T05:53:58.037Z,-62
2017-12-22T05:56:26.051Z,-62
2017-12-22T05:58:54.504Z,-62
2017-12-22T06:01:22.464Z,-62
2017-12-22T06:03:50.405Z,-62
2017-12-22T06:06:19.022Z,-62
2017-12-22T06:08:47.078Z,-62
2017-12-22T06:13:45.319Z,-62
2017-12-22T06:16:14.071Z,-61
2017-12-22T06:18:41.980Z,-61
2017-12-22T06:21:09.957Z,-61
2017-12-22T06:23:37.883Z,-61
2017-12-22T06:26:05.884Z,-61
2017-12-22T06:28:33.804Z,-61
2017-12-22T06:31:02.104Z,-62
2017-12-22T06:33:30.048Z,-62
2017-12-22T06:35:57.975Z,-61
2017-12-22T06:38:25.874Z,-61
2017-12-22T06:40:53.872Z,-63
2017-12-22T06:43:21.944Z,-61
2017-12-22T06:45:49.892Z,-61
2017-12-22T06:48:17.832Z,-61
2017-12-22T06:50:45.729Z,-61
2017-12-22T06:53:13.915Z,-61
2017-12-22T06:55:41.854Z,-62
2017-12-22T06:58:09.735Z,-61
2017-12-22T07:00:37.704Z,-62
2017-12-22T07:03:05.632Z,-62
2017-12-22T07:05:33.620Z,-62
2017-12-22T07:08:01.524Z,-62
2017-12-22T07:10:29.468Z,-62
2017-12-22T07:12:57.391Z,-62
2017-12-22T07:15:26.704Z,-62
2017-12-22T07:17:55.348Z,-62
2017-12-22T07:20:23.748Z,-61
2017-12-22T07:22:51.748Z,-61
2017-12-22T07:25:19.667Z,-62
2017-12-22T07:27:47.864Z,-62
2017-12-22T07:30:15.835Z,-63
2017-12-22T07:32:43.771Z,-62
2017-12-22T07:35:11.726Z,-62
2017-12-22T07:37:39.624Z,-63
2017-12-22T07:40:07.587Z,-62
2017-12-22T07:42:35.979Z,-63
2017-12-22T07:45:03.924Z,-63
2017-12-22T07:47:31.860Z,-64
2017-12-22T07:49:59.744Z,-65
2017-12-22T07:52:27.816Z,-64
2017-12-22T07:54:55.709Z,-64
2017-12-22T07:57:24.419Z,-64
2017-12-22T07:59:53.262Z,-64
2017-12-22T08:02:21.252Z,-66
2017-12-22T08:04:49.163Z,-66
2017-12-22T08:07:17.511Z,-66
2017-12-22T08:09:46.175Z,-64
2017-12-22T08:12:14.079Z,-64
2017-12-22T08:14:42.015Z,-63
2017-12-22T08:17:09.968Z,-65
2017-12-22T08:19:37.949Z,-64
2017-12-22T08:22:05.879Z,-64
2017-12-22T08:24:34.251Z,-65
2017-12-22T08:27:02.904Z,-64
2017-12-22T08:29:30.833Z,-64
2017-12-22T08:31:58.752Z,-64
2017-12-22T08:34:26.915Z,-64
2017-12-22T08:36:54.811Z,-66
2017-12-22T08:39:22.701Z,-67
2017-12-22T08:41:51.032Z,-66
2017-12-22T08:44:18.979Z,-66
2017-12-22T08:46:46.901Z,-66
2017-12-22T08:49:14.830Z,-64
2017-12-22T08:51:42.746Z,-64
2017-12-22T08:54:10.703Z,-64
2017-12-22T08:56:38.607Z,-63
2017-12-22T08:59:06.541Z,-65
2017-12-22T09:01:34.519Z,-66
2017-12-22T09:04:02.783Z,-66
2017-12-22T09:06:30.732Z,-65
2017-12-22T09:08:59.405Z,-64
2017-12-22T09:11:27.650Z,-66
2017-12-22T09:13:55.583Z,-66
2017-12-22T09:16:24.404Z,-66
2017-12-22T09:18:52.831Z,-66
2017-12-22T09:21:21.038Z,-66
2017-12-22T09:23:49.532Z,-66
2017-12-22T09:26:17.663Z,-66
2017-12-22T09:28:45.587Z,-66
2017-12-22T09:31:13.513Z,-66
2017-12-22T09:33:42.175Z,-66
2017-12-22T09:36:10.076Z,-66
2017-12-22T09:38:37.986Z,-66
2017-12-22T09:41:06.320Z,-66
2017-12-22T09:43:34.235Z,-66
2017-12-22T09:46:02.202Z,-66
2017-12-22T09:48:30.181Z,-66
2017-12-22T09:50:58.125Z,-66
2017-12-22T09:53:26.084Z,-65
2017-12-22T09:55:54.022Z,-65
2017-12-22T09:58:21.939Z,-65
2017-12-22T10:00:50.243Z,-65
2017-12-22T10:03:18.148Z,-66
2017-12-22T10:05:46.793Z,-66
2017-12-22T10:08:15.550Z,-67
2017-12-22T10:10:44.148Z,-66
2017-12-22T10:13:12.084Z,-66
2017-12-22T10:15:40.032Z,-67
2017-12-22T10:18:08.536Z,-66
2017-12-22T10:20:36.979Z,-66
2017-12-22T10:23:06.631Z,-66
2017-12-22T10:25:34.543Z,-67
2017-12-22T10:28:04.196Z,-66
2017-12-22T10:30:32.935Z,-66
2017-12-22T10:33:00.852Z,-66
2017-12-22T10:35:29.552Z,-66
2017-12-22T10:37:57.560Z,-66
2017-12-22T10:40:25.736Z,-66
2017-12-22T10:42:54.160Z,-67
2017-12-22T10:45:22.828Z,-66
2017-12-22T10:47:50.815Z,-66
2017-12-22T10:50:18.831Z,-66
2017-12-22T10:52:46.788Z,-66
2017-12-22T10:55:15.303Z,-64
2017-12-22T10:57:44.260Z,-65
2017-12-22T11:00:12.215Z,-64
2017-12-22T11:02:40.168Z,-64
2017-12-22T11:05:08.895Z,-64
2017-12-22T11:07:36.839Z,-65
2017-12-22T11:10:05.240Z,-66
2017-12-22T11:12:33.219Z,-64
2017-12-22T11:15:01.179Z,-64
2017-12-22T11:17:29.323Z,-64
2017-12-22T11:19:57.975Z,-65
2017-12-22T11:22:25.929Z,-66
2017-12-22T11:24:54.233Z,-66
2017-12-22T11:27:22.188Z,-65
2017-12-22T11:29:50.362Z,-66
2017-12-22T11:32:18.396Z,-66
2017-12-22T11:34:46.327Z,-66
2017-12-22T11:37:15.016Z,-65
2017-12-22T11:39:43.711Z,-65
2017-12-22T11:42:12.367Z,-64
2017-12-22T11:44:41.512Z,-64
2017-12-22T11:47:10.488Z,-65
2017-12-22T11:49:38.460Z,-64
2017-12-22T11:52:06.413Z,-65
2017-12-22T11:54:34.327Z,-66
2017-12-22T11:57:02.218Z,-66
2017-12-22T11:59:30.119Z,-66
2017-12-22T12:01:58.816Z,-64
2017-12-22T12:04:26.744Z,-65
2017-12-22T12:06:56.009Z,-64
2017-12-22T12:09:23.956Z,-66
2017-12-22T12:11:51.921Z,-67
2017-12-22T12:14:20.663Z,-66
2017-12-22T12:16:48.648Z,-67
2017-12-22T12:19:16.572Z,-67
2017-12-22T12:21:44.689Z,-68
2017-12-22T12:24:13.397Z,-66
2017-12-22T12:26:42.324Z,-66
2017-12-22T12:29:10.234Z,-65
2017-12-22T12:31:38.152Z,-64
2017-12-22T12:34:06.120Z,-66
2017-12-22T12:36:34.184Z,-65
2017-12-22T12:39:02.155Z,-66
2017-12-22T12:41:30.097Z,-65
2017-12-22T12:43:58.108Z,-65
2017-12-22T12:46:26.014Z,-66
2017-12-22T12:48:54.223Z,-65
2017-12-22T12:51:22.883Z,-66
2017-12-22T12:53:50.819Z,-66
2017-12-22T12:56:18.771Z,-65
2017-12-22T12:58:46.728Z,-64
2017-12-22T13:01:14.668Z,-64
2017-12-22T13:03:42.619Z,-64
2017-12-22T13:06:10.572Z,-64
2017-12-22T13:08:38.476Z,-64
2017-12-22T13:11:07.151Z,-64
2017-12-22T13:13:35.060Z,-64
2017-12-22T13:16:03.439Z,-66
2017-12-22T13:18:31.344Z,-66
2017-12-22T13:20:59.267Z,-66
2017-12-22T13:23:27.183Z,-66
2017-12-22T13:25:55.855Z,-66
2017-12-22T13:28:23.788Z,-66
2017-12-22T13:30:52.444Z,-66
2017-12-22T13:33:20.352Z,-66
2017-12-22T13:35:48.303Z,-67
2017-12-22T13:38:16.216Z,-66
2017-12-22T13:40:44.248Z,-64
2017-12-22T13:43:12.479Z,-64
2017-12-22T13:45:40.466Z,-64
2017-12-22T13:48:08.439Z,-64
2017-12-22T13:50:37.855Z,-64
2017-12-22T13:53:06.519Z,-64
2017-12-22T13:55:34.451Z,-65
2017-12-22T13:58:03.428Z,-64
2017-12-22T14:00:31.372Z,-65
2017-12-22T14:03:00.080Z,-64
2017-12-22T14:05:27.959Z,-65
2017-12-22T14:07:55.943Z,-64
2017-12-22T14:10:23.847Z,-64
2017-12-22T14:12:51.774Z,-64
2017-12-22T14:15:19.667Z,-64
2017-12-22T14:17:47.600Z,-64
2017-12-22T14:20:15.503Z,-66
2017-12-22T14:22:43.932Z,-64
2017-12-22T14:25:11.867Z,-65
2017-12-22T14:27:39.789Z,-64
2017-12-22T14:30:07.752Z,-65
2017-12-22T14:32:35.759Z,-64
2017-12-22T14:35:03.745Z,-66
2017-12-22T14:37:32.438Z,-66
2017-12-22T14:40:01.112Z,-65
2017-12-22T14:42:29.060Z,-64
2017-12-22T14:44:56.960Z,-64
2017-12-22T14:47:26.372Z,-62
2017-12-22T14:49:54.331Z,-63
2017-12-22T14:52:22.271Z,-62
2017-12-22T14:54:50.249Z,-63
2017-12-22T14:57:18.244Z,-63
2017-12-22T14:59:46.249Z,-63
2017-12-22T15:02:14.159Z,-62
2017-12-22T15:04:42.123Z,-63
2017-12-22T15:07:10.700Z,-63
2017-12-22T15:09:38.680Z,-63
2017-12-22T15:12:06.619Z,-63
2017-12-22T15:14:34.515Z,-63
2017-12-22T15:17:02.455Z,-63
2017-12-22T15:19:31.151Z,-63
2017-12-22T15:21:59.092Z,-63
2017-12-22T15:24:27.019Z,-63
2017-12-22T15:26:55.429Z,-63
2017-12-22T15:29:24.107Z,-63
2017-12-22T15:31:52.069Z,-63
2017-12-22T15:34:20.018Z,-63
2017-12-22T15:36:47.952Z,-63
2017-12-22T15:39:15.868Z,-63
2017-12-22T15:41:44.047Z,-63
2017-12-22T15:44:13.573Z,-63
2017-12-22T15:46:41.505Z,-63
2017-12-22T15:49:09.445Z,-63
2017-12-22T15:51:37.695Z,-63
2017-12-22T15:54:05.668Z,-62
2017-12-22T15:56:33.604Z,-62
2017-12-22T15:59:01.591Z,-63
2017-12-22T16:01:29.598Z,-63
2017-12-22T16:03:57.509Z,-63
2017-12-22T16:06:25.427Z,-63
2017-12-22T16:08:53.364Z,-63
2017-12-22T16:11:22.093Z,-63
2017-12-22T16:13:51.513Z,-62
2017-12-22T16:16:19.769Z,-62
2017-12-22T16:18:47.771Z,-62
2017-12-22T16:21:15.687Z,-62
2017-12-22T16:23:43.608Z,-62
2017-12-22T16:26:11.536Z,-62
2017-12-22T16:28:39.475Z,-62
2017-12-22T16:31:08.150Z,-62
2017-12-22T16:33:36.078Z,-62
2017-12-22T16:36:04.008Z,-63
2017-12-22T16:38:32.948Z,-63
2017-12-22T16:41:01.023Z,-64
2017-12-22T16:43:28.929Z,-64
2017-12-22T16:45:57.579Z,-64
2017-12-22T16:48:25.540Z,-64
2017-12-22T16:50:53.516Z,-64
2017-12-22T16:53:21.483Z,-64
2017-12-22T16:55:49.746Z,-64
2017-12-22T16:58:17.952Z,-64
2017-12-22T17:00:47.117Z,-64
2017-12-22T17:03:15.056Z,-64
2017-12-22T17:05:42.965Z,-64
2017-12-22T17:08:10.964Z,-64
2017-12-22T17:10:38.872Z,-64
2017-12-22T17:13:06.799Z,-63
2017-12-22T17:15:34.708Z,-63
2017-12-22T17:18:02.653Z,-63
2017-12-22T17:20:31.386Z,-62
2017-12-22T17:22:59.570Z,-62
2017-12-22T17:25:27.472Z,-62
2017-12-22T17:27:55.406Z,-62
2017-12-22T17:30:24.113Z,-61
2017-12-22T17:32:52.019Z,-62
2017-12-22T17:35:19.968Z,-62
2017-12-22T17:37:47.895Z,-61
2017-12-22T17:40:16.066Z,-63
2017-12-22T17:42:44.016Z,-62
2017-12-22T17:45:12.044Z,-63
2017-12-22T17:47:39.977Z,-62
2017-12-22T17:50:08.242Z,-63
2017-12-22T17:52:36.263Z,-63
2017-12-22T17:55:04.235Z,-63
2017-12-22T17:57:32.309Z,-64
2017-12-22T18:00:00.272Z,-61
2017-12-22T18:02:28.175Z,-64
2017-12-22T18:04:56.116Z,-64
2017-12-22T18:07:24.832Z,-70
2017-12-22T18:09:52.796Z,-61
2017-12-22T18:12:20.788Z,-62
2017-12-22T18:14:48.995Z,-64
2017-12-22T18:17:16.919Z,-64
2017-12-22T18:19:44.815Z,-62
2017-12-22T18:22:12.740Z,-63
2017-12-22T18:24:41.415Z,-63
2017-12-22T18:27:16.689Z,-64
2017-12-22T18:29:44.740Z,-64
2017-12-22T18:32:13.388Z,-65
2017-12-22T18:34:41.292Z,-65
2017-12-22T18:37:10.035Z,-64
2017-12-22T18:39:38.212Z,-65
2017-12-22T18:42:06.147Z,-64
2017-12-22T18:44:34.046Z,-65
2017-12-22T18:47:02.029Z,-65
2017-12-22T18:49:29.931Z,-65
2017-12-22T18:51:57.829Z,-66
2017-12-22T18:54:25.736Z,-65
2017-12-22T18:56:53.653Z,-65
2017-12-22T18:59:21.698Z,-64
2017-12-22T19:01:50.393Z,-65
2017-12-22T19:04:18.275Z,-66
2017-12-22T19:06:46.492Z,-66
2017-12-22T19:09:15.140Z,-64
2017-12-22T19:11:43.075Z,-65
2017-12-22T19:14:11.008Z,-65
2017-12-22T19:16:38.966Z,-65
2017-12-22T19:19:06.905Z,-64
2017-12-22T19:21:34.843Z,-65
2017-12-22T19:24:02.854Z,-65
2017-12-22T19:26:31.072Z,-65
2017-12-22T19:28:59.084Z,-65
2017-12-22T19:31:27.281Z,-65
2017-12-22T19:33:55.212Z,-65
2017-12-22T19:36:23.887Z,-65
2017-12-22T19:38:51.824Z,-65
2017-12-22T19:41:19.796Z,-66
2017-12-22T19:43:47.788Z,-66
2017-12-22T19:46:15.804Z,-65
2017-12-22T19:48:44.227Z,-66
2017-12-22T19:51:12.245Z,-65
2017-12-22T19:53:40.900Z,-65
2017-12-22T19:56:08.883Z,-65
2017-12-22T19:58:36.819Z,-65
2017-12-22T20:01:04.801Z,-64
2017-12-22T20:03:32.795Z,-64
2017-12-22T20:06:01.460Z,-64
2017-12-22T20:08:29.507Z,-63
2017-12-22T20:10:57.907Z,-64
2017-12-22T20:13:26.372Z,-64
2017-12-22T20:15:54.529Z,-63
2017-12-22T20:18:22.472Z,-63
2017-12-22T20:20:50.392Z,-64
2017-12-22T20:23:18.324Z,-64
2017-12-22T20:25:46.233Z,-64
2017-12-22T20:28:20.416Z,-64
2017-12-22T20:30:48.410Z,-65
2017-12-22T20:33:16.327Z,-64
2017-12-22T20:35:44.249Z,-64
2017-12-22T20:38:12.204Z,-64
2017-12-22T20:40:40.143Z,-64
2017-12-22T20:43:08.480Z,-64
2017-12-22T20:45:36.540Z,-64
2017-12-22T20:48:04.713Z,-64
2017-12-22T20:50:32.623Z,-64
2017-12-22T20:53:00.546Z,-64
2017-12-22T20:55:29.859Z,-64
2017-12-22T20:57:57.779Z,-64
2017-12-22T21:00:25.720Z,-65
2017-12-22T21:02:53.667Z,-64
2017-12-22T21:05:21.637Z,-65
2017-12-22T21:07:50.035Z,-65
2017-12-22T21:10:18.681Z,-64
2017-12-22T21:12:46.617Z,-65
2017-12-22T21:15:15.269Z,-64
2017-12-22T21:17:43.228Z,-64
2017-12-22T21:20:11.131Z,-65
2017-12-22T21:22:39.072Z,-65
2017-12-22T21:25:07.021Z,-65
2017-12-22T21:27:34.988Z,-65
2017-12-22T21:30:02.987Z,-65
2017-12-22T21:32:31.945Z,-65
2017-12-22T21:34:59.905Z,-65
2017-12-22T21:37:27.791Z,-65
2017-12-22T21:39:55.715Z,-65
2017-12-22T21:42:23.620Z,-65
2017-12-22T21:44:51.579Z,-65
2017-12-22T21:47:19.777Z,-65
2017-12-22T21:49:47.699Z,-65
2017-12-22T21:52:15.596Z,-65
2017-12-22T21:54:43.523Z,-66
2017-12-22T21:57:11.698Z,-65
2017-12-22T21:59:39.951Z,-65
2017-12-22T22:02:08.596Z,-65
2017-12-22T22:04:36.528Z,-65
2017-12-22T22:07:04.672Z,-65
2017-12-22T22:09:33.328Z,-65
2017-12-22T22:12:01.271Z,-66
2017-12-22T22:14:29.195Z,-65
2017-12-22T22:16:57.112Z,-66
2017-12-22T22:19:25.073Z,-66
2017-12-22T22:21:53.004Z,-66
2017-12-22T22:24:20.943Z,-66
2017-12-22T22:26:49.620Z,-65
2017-12-22T22:29:17.547Z,-65
2017-12-22T22:31:45.462Z,-65
2017-12-22T22:34:13.383Z,-65
2017-12-22T22:36:42.156Z,-65
2017-12-22T22:39:10.799Z,-65
2017-12-22T22:41:39.872Z,-65
2017-12-22T22:44:07.785Z,-66
2017-12-22T22:46:37.177Z,-65
2017-12-22T22:49:05.103Z,-66
2017-12-22T22:51:32.999Z,-65
2017-12-22T22:54:00.940Z,-65
2017-12-22T22:56:28.859Z,-65
2017-12-22T22:58:57.208Z,-65
2017-12-22T23:01:25.139Z,-65
2017-12-22T23:03:53.080Z,-65
2017-12-22T23:06:21.006Z,-65
2017-12-22T23:08:49.039Z,-66
2017-12-22T23:11:17.706Z,-65
2017-12-22T23:13:45.648Z,-65
2017-12-22T23:16:13.606Z,-65
2017-12-22T23:18:42.573Z,-65
2017-12-22T23:21:11.249Z,-65
2017-12-22T23:23:39.913Z,-65
2017-12-22T23:26:07.830Z,-66
2017-12-22T23:28:36.448Z,-66
2017-12-22T23:31:04.366Z,-66
2017-12-22T23:33:33.053Z,-64
2017-12-22T23:36:00.936Z,-66
2017-12-22T23:38:28.861Z,-65
2017-12-22T23:40:56.823Z,-64
2017-12-22T23:43:25.108Z,-65
2017-12-22T23:45:53.039Z,-65
2017-12-22T23:48:20.999Z,-65
2017-12-22T23:50:48.924Z,-65
2017-12-22T23:53:17.603Z,-66
2017-12-22T23:55:45.583Z,-66
2017-12-22T23:58:13.513Z,-66
